Time;durP1;ratioP1;P1;durP2;ratioP2;P2;SDS_P1;SDS_P2;PMS_P1;PMS_P2;Temp;Humidity;BMP_temperature;BMP_pressure;BME280_temperature;BME280_humidity;BME280_pressure;Samples;Min_cycle;Max_cycle;Signal;HPM_P1;HPM_P2
2022/08/26 00:01:56;;;;;;;3.10;2.38;;;;;;;18.85;63.43;101222.81;5032597;28;20052;-57
2022/08/26 00:04:23;;;;;;;5.20;2.17;;;;;;;18.95;64.29;101212.09;5032805;28;20051;-58
2022/08/26 00:06:50;;;;;;;2.35;2.10;;;;;;;19.20;63.68;101214.25;5032162;28;20459;-58
2022/08/26 00:09:16;;;;;;;5.75;2.70;;;;;;;19.22;62.78;101212.13;5032581;28;20444;-58
2022/08/26 00:11:44;;;;;;;4.03;2.15;;;;;;;19.24;63.42;101227.06;5032700;28;20438;-58
2022/08/26 00:14:10;;;;;;;4.82;1.80;;;;;;;19.30;62.93;101216.28;5032846;28;20029;-59
2022/08/26 00:16:36;;;;;;;5.10;2.22;;;;;;;19.07;63.40;101231.75;5032482;28;20025;-58
2022/08/26 00:19:03;;;;;;;3.45;1.60;;;;;;;19.16;63.34;101224.81;5032619;28;20021;-56
2022/08/26 00:21:29;;;;;;;5.68;1.80;;;;;;;19.44;63.11;101225.69;5032403;28;20086;-62
2022/08/26 00:23:55;;;;;;;4.57;1.42;;;;;;;19.43;62.71;101227.56;5032230;28;20179;-59
2022/08/26 00:26:22;;;;;;;5.10;1.92;;;;;;;19.29;63.11;101229.03;5032110;28;20437;-57
2022/08/26 00:28:48;;;;;;;3.65;1.70;;;;;;;19.43;62.40;101227.56;5032292;28;20117;-56
2022/08/26 00:31:15;;;;;;;2.65;1.45;;;;;;;19.44;63.11;101231.09;5032272;28;20029;-56
2022/08/26 00:33:42;;;;;;;7.93;1.80;;;;;;;19.56;63.09;101228.22;5032502;28;20022;-53
2022/08/26 00:36:08;;;;;;;1.52;1.38;;;;;;;19.25;63.01;101228.72;5032101;28;20026;-56
2022/08/26 00:38:36;;;;;;;5.32;1.33;;;;;;;19.22;63.60;101223.00;5032296;28;20369;-54
2022/08/26 00:41:03;;;;;;;1.30;1.20;;;;;;;19.27;63.12;101225.75;5032063;28;20109;-56
2022/08/26 00:43:32;;;;;;;3.33;1.42;;;;;;;19.12;64.24;101237.25;5035427;28;20033;-55
2022/08/26 00:46:09;;;;;;;2.40;1.10;;;;;;;18.95;64.76;101228.38;5036394;28;20021;-55
2022/08/26 00:48:38;;;;;;;2.13;1.20;;;;;;;19.16;64.57;101224.81;5036230;28;20021;-56
2022/08/26 00:51:18;;;;;;;2.95;1.10;;;;;;;18.85;65.86;101217.38;5036482;28;20028;-57
2022/08/26 00:53:58;;;;;;;2.42;1.20;;;;;;;19.01;65.45;101218.41;5036190;28;20056;-58
2022/08/26 00:56:35;;;;;;;2.13;1.27;;;;;;;18.68;65.96;101215.53;5036462;28;20032;-58
2022/08/26 00:59:07;;;;;;;3.17;1.85;;;;;;;18.57;67.21;101211.00;5036268;28;20088;-58
2022/08/26 01:01:33;;;;;;;2.85;1.40;;;;;;;18.49;67.19;101211.47;5036459;28;20029;-57
2022/08/26 01:04:00;;;;;;;2.47;1.30;;;;;;;18.10;67.90;101211.41;5036142;28;20022;-58
2022/08/26 01:06:27;;;;;;;4.43;1.30;;;;;;;18.36;67.87;101215.31;5036448;28;20025;-58
2022/08/26 01:08:53;;;;;;;4.30;1.30;;;;;;;18.37;68.04;101225.09;5036554;28;20028;-58
2022/08/26 01:11:20;;;;;;;2.42;1.30;;;;;;;18.43;68.71;101234.09;5036071;28;20109;-58
2022/08/26 01:13:47;;;;;;;2.97;1.52;;;;;;;18.15;68.41;101230.44;5036346;28;20025;-58
2022/08/26 01:16:15;;;;;;;2.47;1.25;;;;;;;18.31;67.68;101236.09;5036029;28;20033;-58
2022/08/26 01:18:43;;;;;;;1.50;1.02;;;;;;;18.16;68.39;101239.41;5036268;28;20036;-56
2022/08/26 01:21:43;;;;;;;3.35;1.80;;;;;;;18.00;69.15;101238.34;5036065;28;20029;-57
2022/08/26 01:24:11;;;;;;;3.05;1.08;;;;;;;18.16;68.46;101237.53;5035986;28;20544;-57
2022/08/26 01:26:40;;;;;;;1.67;1.20;;;;;;;17.93;69.05;101240.34;5036025;28;20440;-57
2022/08/26 01:29:11;;;;;;;5.15;1.38;;;;;;;17.99;69.32;101234.00;5017758;28;20029;-57
2022/08/26 01:31:51;;;;;;;4.30;1.20;;;;;;;18.03;69.63;101235.13;5035697;28;20026;-57
2022/08/26 01:34:24;;;;;;;2.50;1.33;;;;;;;17.83;70.18;101234.78;5035816;28;20029;-58
2022/08/26 01:36:57;;;;;;;2.33;1.30;;;;;;;17.54;71.44;101228.53;5035335;28;20133;-57
2022/08/26 01:39:24;;;;;;;18.20;2.03;;;;;;;17.51;71.80;101229.84;5017372;28;20025;-57
2022/08/26 01:41:55;;;;;;;3.20;1.02;;;;;;;17.50;71.40;101236.34;5035374;28;20022;-58
2022/08/26 01:44:25;;;;;;;1.92;1.13;;;;;;;17.34;71.80;101229.81;5035627;28;20061;-58
2022/08/26 01:46:53;;;;;;;2.55;1.13;;;;;;;17.28;72.61;101225.38;5036322;28;20060;-57
2022/08/26 01:49:22;;;;;;;4.88;0.98;;;;;;;17.37;72.21;101225.78;5035589;28;20029;-57
2022/08/26 01:51:51;;;;;;;1.95;1.05;;;;;;;17.34;72.80;101224.41;5035537;28;20038;-58
2022/08/26 01:54:18;;;;;;;2.30;1.08;;;;;;;17.54;72.38;101231.25;5033779;28;20026;-58
2022/08/26 01:56:46;;;;;;;2.00;1.00;;;;;;;17.44;72.98;101222.97;5035381;28;20468;-58
2022/08/26 01:59:15;;;;;;;2.53;1.35;;;;;;;17.52;72.59;101217.16;5035418;28;20029;-58
2022/08/26 02:01:42;;;;;;;4.55;1.30;;;;;;;17.57;72.41;101218.06;5035783;28;20033;-57
2022/08/26 02:04:32;;;;;;;2.00;1.10;;;;;;;17.51;73.26;101226.34;5035271;28;20038;-57
2022/08/26 02:07:03;;;;;;;3.70;1.33;;;;;;;17.24;73.81;101220.69;5035358;28;20156;-58
2022/08/26 02:09:29;;;;;;;2.65;1.27;;;;;;;17.38;73.53;101222.88;5035464;28;20029;-57
2022/08/26 02:11:56;;;;;;;2.65;1.10;;;;;;;17.49;73.47;101228.44;5035318;28;20021;-57
2022/08/26 02:14:30;;;;;;;3.75;1.00;;;;;;;17.48;73.10;101224.91;5036224;28;20044;-58
2022/08/26 02:16:56;;;;;;;1.95;1.08;;;;;;;17.35;74.09;101225.22;5035081;28;20024;-58
2022/08/26 02:19:28;;;;;;;3.30;1.05;;;;;;;17.38;74.01;101225.56;5035052;28;20021;-57
2022/08/26 02:21:57;;;;;;;2.55;1.20;;;;;;;17.60;73.21;101216.75;5035092;28;20029;-57
2022/08/26 02:24:26;;;;;;;1.95;1.17;;;;;;;17.65;73.32;101223.06;5034848;28;20100;-57
2022/08/26 02:26:53;;;;;;;1.55;0.80;;;;;;;17.58;73.10;101225.09;5034973;28;20049;-58
2022/08/26 02:29:40;;;;;;;4.47;1.30;;;;;;;17.70;73.11;101222.34;5034965;28;20026;-58
2022/08/26 02:32:09;;;;;;;2.38;1.17;;;;;;;17.66;73.08;101234.75;5034854;28;20033;-58
2022/08/26 02:34:36;;;;;;;2.78;1.17;;;;;;;17.36;74.15;101234.97;5034872;28;20100;-58
2022/08/26 02:37:06;;;;;;;3.05;1.05;;;;;;;17.28;74.96;101227.25;5034601;28;20029;-58
2022/08/26 02:39:35;;;;;;;3.85;1.38;;;;;;;17.34;74.78;101229.00;5035236;28;20105;-58
2022/08/26 02:42:02;;;;;;;1.50;0.90;;;;;;;17.15;75.07;101237.28;5034741;28;20353;-58
2022/08/26 02:44:28;;;;;;;3.08;0.98;;;;;;;17.26;74.80;101237.47;5034611;28;20475;-58
2022/08/26 02:46:54;;;;;;;3.80;1.05;;;;;;;17.01;75.78;101235.91;5034570;28;20084;-58
2022/08/26 02:49:22;;;;;;;2.05;0.90;;;;;;;16.92;76.79;101241.94;5034658;28;20033;-57
2022/08/26 02:51:49;;;;;;;3.33;1.00;;;;;;;17.01;76.22;101244.03;5034586;28;20467;-58
2022/08/26 02:54:17;;;;;;;1.60;0.68;;;;;;;17.02;76.29;101234.84;5034259;28;20033;-58
2022/08/26 02:56:44;;;;;;;1.20;0.73;;;;;;;16.78;76.99;101249.47;5034454;28;20117;-58
2022/08/26 02:59:14;;;;;;;7.95;1.40;;;;;;;16.69;77.98;101242.75;5034579;28;20476;-57
2022/08/26 03:01:41;;;;;;;1.10;1.00;;;;;;;16.76;77.51;101251.59;5034186;28;20530;-57
2022/08/26 03:04:11;;;;;;;2.08;0.90;;;;;;;16.87;77.22;101245.34;5034288;28;20048;-57
2022/08/26 03:06:38;;;;;;;3.42;1.10;;;;;;;16.86;76.80;101255.34;5033830;28;20368;-57
2022/08/26 03:09:04;;;;;;;3.65;1.15;;;;;;;16.80;77.41;101250.88;5033962;28;20025;-58
2022/08/26 03:11:31;;;;;;;4.45;1.20;;;;;;;16.60;78.21;101245.84;5034026;28;20049;-57
2022/08/26 03:13:59;;;;;;;3.10;1.15;;;;;;;16.70;78.22;101258.72;5033978;28;20025;-57
2022/08/26 03:16:25;;;;;;;1.30;0.90;;;;;;;16.66;78.16;101251.31;5034093;28;20025;-58
2022/08/26 03:18:52;;;;;;;1.85;0.77;;;;;;;16.79;77.34;101265.47;5034045;28;20025;-58
2022/08/26 03:21:19;;;;;;;2.17;0.80;;;;;;;16.68;78.04;101268.16;5033743;28;20056;-58
2022/08/26 03:23:46;;;;;;;1.85;0.98;;;;;;;16.69;77.88;101273.31;5033710;28;20057;-58
2022/08/26 03:26:15;;;;;;;1.75;1.08;;;;;;;16.55;78.72;101274.63;5033522;28;20074;-57
2022/08/26 03:31:26;;;;;;;2.53;0.80;;;;;;;16.70;78.23;101279.53;5034226;28;20380;-57
2022/08/26 03:33:52;;;;;;;3.85;0.98;;;;;;;16.68;78.09;101285.19;5033411;28;20033;-57
2022/08/26 03:36:18;;;;;;;2.40;0.95;;;;;;;16.55;78.52;101280.84;5033439;28;20018;-57
2022/08/26 03:38:45;;;;;;;2.03;0.70;;;;;;;16.66;77.94;101289.16;5033419;28;20553;-58
2022/08/26 03:41:11;;;;;;;1.67;0.50;;;;;;;16.64;77.53;101290.22;5033417;28;20029;-57
2022/08/26 03:43:39;;;;;;;1.90;0.63;;;;;;;16.51;78.37;101293.16;5033335;28;20025;-57
2022/08/26 03:46:10;;;;;;;2.05;0.73;;;;;;;16.36;78.52;101284.69;5033528;28;20026;-57
2022/08/26 03:48:38;;;;;;;1.70;0.50;;;;;;;16.44;78.13;101294.34;5033294;28;20329;-57
2022/08/26 03:51:12;;;;;;;1.42;0.88;;;;;;;16.37;78.76;101297.97;5033210;28;20415;-57
2022/08/26 03:53:38;;;;;;;0.90;0.60;;;;;;;16.19;78.99;101297.25;5033077;28;20025;-57
2022/08/26 03:56:05;;;;;;;1.30;0.70;;;;;;;16.23;79.29;101309.22;5033304;28;20106;-58
2022/08/26 03:58:32;;;;;;;2.08;0.68;;;;;;;16.38;78.29;101298.81;5033054;28;20164;-58
2022/08/26 04:00:58;;;;;;;1.73;0.98;;;;;;;16.56;77.91;101295.16;5032873;28;20033;-57
2022/08/26 04:06:11;;;;;;;3.58;1.02;;;;;;;16.62;78.32;101302.34;5033357;28;20048;-58
2022/08/26 04:08:38;;;;;;;1.42;0.70;;;;;;;16.66;78.08;101302.69;5032727;28;20033;-58
2022/08/26 04:11:05;;;;;;;0.90;0.60;;;;;;;16.77;77.76;101307.31;5032794;28;20391;-58
2022/08/26 04:13:31;;;;;;;1.40;0.90;;;;;;;16.71;77.14;101305.53;5032736;28;20479;-58
2022/08/26 04:15:58;;;;;;;0.98;0.68;;;;;;;16.72;76.89;101318.00;5032910;28;20039;-58
2022/08/26 04:18:26;;;;;;;2.22;0.80;;;;;;;16.82;76.63;101318.22;5032026;28;20057;-58
2022/08/26 04:20:53;;;;;;;0.98;0.73;;;;;;;16.67;76.93;101310.56;5033081;28;20045;-58
2022/08/26 04:23:19;;;;;;;1.60;0.73;;;;;;;16.63;77.01;101312.09;5032541;28;20045;-58
2022/08/26 04:25:45;;;;;;;1.98;0.80;;;;;;;16.71;76.82;101321.75;5033267;28;20450;-58
2022/08/26 04:28:13;;;;;;;1.45;0.90;;;;;;;16.76;77.06;101319.16;5032701;28;20087;-58
2022/08/26 04:30:39;;;;;;;1.20;0.90;;;;;;;16.83;76.73;101330.69;5032863;28;20398;-58
2022/08/26 04:33:06;;;;;;;2.00;1.00;;;;;;;17.03;76.33;101333.03;5032570;28;20037;-57
2022/08/26 04:35:34;;;;;;;1.17;1.02;;;;;;;17.11;76.17;101332.69;5033000;28;20035;-58
2022/08/26 04:38:02;;;;;;;1.33;0.73;;;;;;;17.08;76.20;101331.25;5032854;28;20517;-58
2022/08/26 04:40:28;;;;;;;1.73;0.90;;;;;;;16.99;76.15;101330.00;5032506;28;20030;-58
2022/08/26 04:42:54;;;;;;;7.50;0.85;;;;;;;17.04;75.95;101335.47;5032644;28;20029;-58
2022/08/26 04:45:21;;;;;;;1.27;0.65;;;;;;;17.14;75.36;101337.59;5032516;28;20399;-58
2022/08/26 04:47:47;;;;;;;0.90;0.70;;;;;;;17.09;75.62;101329.38;5032654;28;20064;-58
2022/08/26 04:50:14;;;;;;;2.50;0.77;;;;;;;17.14;75.65;101332.19;5033414;28;20025;-57
2022/08/26 04:52:41;;;;;;;2.83;0.65;;;;;;;16.85;76.51;101337.50;5033526;28;20037;-57
2022/08/26 04:55:07;;;;;;;0.98;0.80;;;;;;;16.90;76.58;101336.81;5032541;28;20034;-57
2022/08/26 04:57:33;;;;;;;1.73;0.60;;;;;;;16.85;77.13;101342.91;5032707;28;20021;-58
2022/08/26 04:59:59;;;;;;;1.70;0.50;;;;;;;16.76;77.43;101341.63;5032298;28;20040;-57
2022/08/26 05:02:26;;;;;;;2.95;0.85;;;;;;;16.79;77.22;101337.63;5032486;28;20485;-58
2022/08/26 05:04:53;;;;;;;1.33;0.70;;;;;;;16.71;77.85;101348.78;5032269;28;20024;-58
2022/08/26 05:07:19;;;;;;;0.88;0.80;;;;;;;16.85;77.25;101350.22;5032283;28;20025;-57
2022/08/26 05:09:45;;;;;;;1.27;0.77;;;;;;;16.76;77.19;101344.31;5032196;28;20021;-58
2022/08/26 05:12:11;;;;;;;1.10;0.70;;;;;;;16.77;76.80;101346.00;5032377;28;20100;-58
2022/08/26 05:14:40;;;;;;;1.58;0.80;;;;;;;16.41;78.29;101343.44;5032365;28;20415;-58
2022/08/26 05:17:07;;;;;;;1.63;0.95;;;;;;;16.53;77.75;101345.09;5032222;28;20021;-58
2022/08/26 05:19:33;;;;;;;1.00;0.80;;;;;;;16.48;77.88;101342.25;5032409;28;20018;-58
2022/08/26 05:21:59;;;;;;;1.92;0.70;;;;;;;16.42;78.14;101337.78;5032117;28;20025;-58
2022/08/26 05:24:26;;;;;;;2.17;0.98;;;;;;;16.46;77.90;101349.78;5032242;28;20040;-58
2022/08/26 05:26:52;;;;;;;2.10;0.80;;;;;;;16.32;78.36;101346.50;5032456;28;20467;-58
2022/08/26 05:29:18;;;;;;;3.30;1.00;;;;;;;16.31;77.83;101346.69;5034825;28;20029;-58
2022/08/26 05:31:44;;;;;;;0.85;0.82;;;;;;;16.10;78.80;101348.91;5036253;28;20458;-58
2022/08/26 05:34:11;;;;;;;2.05;0.85;;;;;;;16.23;78.53;101341.66;5035894;28;20388;-58
2022/08/26 05:36:38;;;;;;;2.30;0.50;;;;;;;16.17;78.33;101342.56;5035813;28;20494;-58
2022/08/26 05:39:05;;;;;;;0.82;0.50;;;;;;;16.23;77.71;101333.53;5035455;28;20037;-58
2022/08/26 05:41:34;;;;;;;1.00;0.63;;;;;;;16.27;78.20;101338.25;5035774;28;20033;-58
2022/08/26 05:44:01;;;;;;;1.10;0.77;;;;;;;16.29;77.81;101335.31;5035726;28;20041;-58
2022/08/26 05:46:28;;;;;;;0.80;0.60;;;;;;;16.26;77.95;101341.97;5035765;28;20087;-58
2022/08/26 05:48:58;;;;;;;2.05;0.63;;;;;;;16.35;77.90;101345.19;5035616;28;20025;-58
2022/08/26 05:51:25;;;;;;;1.00;0.60;;;;;;;16.33;78.43;101347.31;5035536;28;20025;-58
2022/08/26 05:53:52;;;;;;;1.30;0.77;;;;;;;16.21;78.75;101341.88;5035480;28;20022;-58
2022/08/26 05:56:23;;;;;;;2.33;0.60;;;;;;;16.10;78.92;101350.75;5035705;28;20108;-58
2022/08/26 05:58:49;;;;;;;1.05;0.70;;;;;;;16.02;79.62;101346.50;5035438;28;20033;-57
2022/08/26 06:01:19;;;;;;;1.10;0.77;;;;;;;16.19;79.57;101329.66;5035588;28;20037;-58
2022/08/26 06:03:47;;;;;;;1.77;0.90;;;;;;;16.20;79.70;101337.50;5035383;28;20100;-58
2022/08/26 06:06:18;;;;;;;3.38;1.05;;;;;;;16.29;79.53;101336.13;5035349;28;20029;-57
2022/08/26 06:08:44;;;;;;;2.10;0.80;;;;;;;16.14;80.26;101333.03;5035263;28;20130;-58
2022/08/26 06:11:13;;;;;;;2.17;0.90;;;;;;;16.15;80.63;101329.28;5035116;28;20032;-58
2022/08/26 06:13:40;;;;;;;1.35;0.80;;;;;;;16.09;80.70;101333.72;5034959;28;20502;-58
2022/08/26 06:16:09;;;;;;;1.10;0.70;;;;;;;16.05;80.84;101335.25;5035109;28;20025;-58
2022/08/26 06:18:39;;;;;;;1.95;0.85;;;;;;;15.99;81.71;101336.19;5035392;28;20022;-58
2022/08/26 06:21:32;;;;;;;1.20;0.70;;;;;;;16.05;80.75;101327.16;5035342;28;20025;-58
2022/08/26 06:26:55;;;;;;;1.25;0.70;;;;;;;15.94;80.14;101336.03;5035473;28;20032;-58
2022/08/26 06:29:24;;;;;;;0.95;0.60;;;;;;;15.87;80.20;101327.19;5035115;28;20046;-57
2022/08/26 06:31:52;;;;;;;1.27;0.60;;;;;;;15.76;80.65;101328.78;5034890;28;20021;-57
2022/08/26 06:34:18;;;;;;;1.02;0.40;;;;;;;15.68;80.71;101334.50;5034477;28;20029;-57
2022/08/26 06:36:46;;;;;;;0.50;0.50;;;;;;;15.71;80.61;101341.31;5034630;28;20030;-57
2022/08/26 06:39:15;;;;;;;0.50;0.40;;;;;;;15.73;80.39;101333.84;5034714;28;20029;-58
2022/08/26 06:41:43;;;;;;;0.50;0.40;;;;;;;15.69;80.17;101328.06;5034322;28;20025;-57
2022/08/26 06:44:12;;;;;;;0.65;0.50;;;;;;;15.56;80.98;101339.81;5034591;28;20036;-57
2022/08/26 06:46:39;;;;;;;0.70;0.60;;;;;;;15.63;80.81;101336.25;5034236;28;20416;-58
2022/08/26 06:49:05;;;;;;;0.80;0.60;;;;;;;15.59;81.19;101331.25;5034352;28;20372;-58
2022/08/26 06:51:34;;;;;;;0.70;0.50;;;;;;;15.68;81.03;101339.09;5034680;28;20052;-58
2022/08/26 06:54:02;;;;;;;1.05;0.52;;;;;;;15.58;82.05;101339.59;5034378;28;20025;-57
2022/08/26 06:56:37;;;;;;;0.70;0.50;;;;;;;15.68;81.46;101339.91;5034247;28;20400;-58
2022/08/26 06:59:04;;;;;;;0.50;0.50;;;;;;;15.62;81.38;101342.66;5034146;28;20025;-58
2022/08/26 07:01:33;;;;;;;0.70;0.70;;;;;;;15.65;81.12;101328.75;5034365;28;20030;-57
2022/08/26 07:04:02;;;;;;;0.82;0.77;;;;;;;15.65;82.15;101328.75;5034335;28;20052;-58
2022/08/26 07:06:30;;;;;;;1.02;0.70;;;;;;;15.68;82.10;101336.41;5034215;28;20063;-57
2022/08/26 07:09:03;;;;;;;0.55;0.55;;;;;;;15.65;82.86;101339.53;5034157;28;20022;-58
2022/08/26 07:11:31;;;;;;;0.95;0.85;;;;;;;15.66;83.39;101331.22;5034051;28;20021;-58
2022/08/26 07:13:58;;;;;;;1.15;0.80;;;;;;;15.62;82.92;101337.28;5033963;28;20025;-58
2022/08/26 07:16:26;;;;;;;0.65;0.65;;;;;;;15.61;82.09;101333.75;5034277;28;20033;-57
2022/08/26 07:18:52;;;;;;;0.65;0.50;;;;;;;15.52;82.11;101332.41;5034143;28;20087;-58
2022/08/26 07:21:20;;;;;;;0.52;0.47;;;;;;;15.69;81.58;101338.03;5049373;28;20055;-58
2022/08/26 07:23:47;;;;;;;0.70;0.40;;;;;;;15.67;80.96;101335.56;5033576;28;20046;-58
2022/08/26 07:26:20;;;;;;;0.75;0.43;;;;;;;15.51;81.03;101334.28;5033933;28;20025;-58
2022/08/26 07:28:49;;;;;;;0.73;0.68;;;;;;;15.44;81.51;101338.94;5033999;28;20021;-58
2022/08/26 07:31:16;;;;;;;1.25;0.40;;;;;;;15.34;81.11;101335.13;5033673;28;20022;-58
2022/08/26 07:33:43;;;;;;;1.35;0.63;;;;;;;15.36;80.89;101336.53;5034466;28;20029;-58
2022/08/26 07:36:12;;;;;;;0.30;0.30;;;;;;;15.36;81.34;101341.13;5034743;28;20025;-57
2022/08/26 07:38:40;;;;;;;0.35;0.35;;;;;;;15.32;82.09;101344.28;5034194;28;20084;-58
2022/08/26 07:41:07;;;;;;;1.38;0.40;;;;;;;15.39;81.79;101340.66;5033706;28;20021;-58
2022/08/26 07:43:35;;;;;;;0.30;0.30;;;;;;;15.32;81.78;101335.34;5033506;28;20491;-57
2022/08/26 07:46:03;;;;;;;1.23;0.40;;;;;;;15.40;81.61;101335.03;5033166;28;20022;-58
2022/08/26 07:48:30;;;;;;;0.68;0.50;;;;;;;15.38;81.62;101339.84;5033417;28;20025;-58
2022/08/26 07:50:56;;;;;;;0.68;0.40;;;;;;;15.29;81.77;101341.19;5033420;28;20448;-57
2022/08/26 07:53:23;;;;;;;0.65;0.50;;;;;;;15.37;81.62;101343.56;5033170;28;20033;-58
2022/08/26 07:55:49;;;;;;;0.40;0.40;;;;;;;15.27;81.80;101337.91;5033216;28;20491;-58
2022/08/26 07:58:16;;;;;;;0.70;0.43;;;;;;;15.31;81.73;101344.47;5033202;28;20109;-58
2022/08/26 08:00:42;;;;;;;0.95;0.55;;;;;;;15.37;81.35;101343.56;5033322;28;20479;-58
2022/08/26 08:03:10;;;;;;;0.40;0.40;;;;;;;15.39;81.35;101338.78;5033687;28;20039;-58
2022/08/26 08:05:37;;;;;;;1.27;0.60;;;;;;;15.41;81.60;101343.97;5033066;28;20053;-57
2022/08/26 08:08:06;;;;;;;0.47;0.47;;;;;;;15.36;82.31;101338.41;5032665;28;20026;-58
2022/08/26 08:10:35;;;;;;;0.70;0.60;;;;;;;15.28;82.15;101336.84;5033257;28;20112;-58
2022/08/26 08:13:02;;;;;;;0.95;0.68;;;;;;;15.28;82.47;101336.84;5033097;28;20033;-58
2022/08/26 08:15:31;;;;;;;1.38;0.95;;;;;;;15.28;82.76;101332.28;5033270;28;20112;-57
2022/08/26 08:17:58;;;;;;;2.55;0.57;;;;;;;15.29;82.83;101333.94;5032607;28;20448;-58
2022/08/26 08:20:26;;;;;;;0.98;0.50;;;;;;;15.29;82.65;101339.31;5032679;28;20056;-58
2022/08/26 08:22:53;;;;;;;0.52;0.52;;;;;;;15.26;82.59;101341.63;5033247;28;20041;-58
2022/08/26 08:25:20;;;;;;;0.40;0.40;;;;;;;15.30;82.83;101338.25;5032858;28;20048;-58
2022/08/26 08:27:49;;;;;;;2.70;0.52;;;;;;;15.34;82.45;101352.13;5032950;28;20022;-58
2022/08/26 08:30:19;;;;;;;0.30;0.30;;;;;;;15.47;81.93;101343.88;5032973;28;20475;-58
2022/08/26 08:32:45;;;;;;;0.50;0.47;;;;;;;15.49;81.63;101343.63;5032833;28;20025;-58
2022/08/26 08:35:14;;;;;;;0.77;0.63;;;;;;;15.52;81.80;101340.50;5032962;28;20113;-58
2022/08/26 08:37:41;;;;;;;0.77;0.40;;;;;;;15.61;81.14;101341.03;5032924;28;20021;-58
2022/08/26 08:40:08;;;;;;;0.52;0.52;;;;;;;15.47;81.18;101348.44;5032685;28;20067;-58
2022/08/26 08:42:52;;;;;;;0.80;0.60;;;;;;;15.52;81.05;101348.59;5032765;28;20033;-57
2022/08/26 08:45:36;;;;;;;0.60;0.60;;;;;;;15.51;81.11;101350.47;5032924;28;20033;-58
2022/08/26 08:48:26;;;;;;;0.30;0.30;;;;;;;15.24;81.34;101352.66;5032705;28;20037;-57
2022/08/26 08:51:23;;;;;;;1.13;0.35;;;;;;;15.36;80.09;101349.19;5032890;28;20038;-58
2022/08/26 08:53:52;;;;;;;0.10;0.10;;;;;;;15.22;79.12;101345.84;5033147;28;20044;-58
2022/08/26 08:56:30;;;;;;;0.13;0.10;;;;;;;15.09;79.40;101345.97;5032574;28;20026;-58
2022/08/26 08:59:10;;;;;;;0.20;0.10;;;;;;;14.98;79.77;101345.66;5032490;28;20104;-58
2022/08/26 09:01:44;;;;;;;0.30;0.10;;;;;;;15.22;78.81;101348.53;5032713;28;20030;-58
2022/08/26 09:04:29;;;;;;;0.20;0.20;;;;;;;15.21;78.80;101342.31;5034835;28;20495;-58
2022/08/26 09:06:58;;;;;;;1.75;0.20;;;;;;;15.00;79.76;101340.06;5037042;28;20025;-58
2022/08/26 09:09:48;;;;;;;0.63;0.03;;;;;;;15.10;79.02;101336.81;5036827;28;20033;-58
2022/08/26 09:12:23;;;;;;;0.40;0.20;;;;;;;15.02;79.57;101338.78;5036337;28;20109;-58
2022/08/26 09:14:51;;;;;;;0.90;0.20;;;;;;;14.98;80.25;101337.56;5036271;28;20466;-58
2022/08/26 09:17:41;;;;;;;0.10;0.10;;;;;;;14.93;80.44;101340.09;5036535;28;20387;-57
2022/08/26 09:20:24;;;;;;;0.20;0.20;;;;;;;14.93;80.64;101342.78;5036908;28;20083;-57
2022/08/26 09:22:50;;;;;;;0.80;0.30;;;;;;;14.89;81.16;101341.63;5035828;28;20140;-58
2022/08/26 09:25:17;;;;;;;0.80;0.17;;;;;;;14.97;81.61;101341.31;5036067;28;20372;-58
2022/08/26 09:27:52;;;;;;;0.10;0.10;;;;;;;14.90;81.67;101343.25;5051541;28;20017;-57
2022/08/26 09:30:31;;;;;;;0.30;0.20;;;;;;;14.91;82.12;101341.38;5036111;28;20025;-57
2022/08/26 09:33:07;;;;;;;1.23;0.20;;;;;;;14.93;81.49;101331.19;5036182;28;20079;-58
2022/08/26 09:35:40;;;;;;;0.10;0.10;;;;;;;14.88;81.62;101341.81;5036194;28;20436;-57
2022/08/26 09:38:24;;;;;;;0.20;0.10;;;;;;;14.82;82.25;101340.00;5035927;28;20407;-57
2022/08/26 09:40:59;;;;;;;0.40;0.20;;;;;;;14.90;81.62;101335.19;5035873;28;20091;-57
2022/08/26 09:43:27;;;;;;;0.20;0.20;;;;;;;14.86;82.03;101325.06;5035821;28;20036;-57
2022/08/26 09:46:09;;;;;;;0.50;0.30;;;;;;;14.94;82.13;101324.78;5035756;28;20032;-58
2022/08/26 09:48:38;;;;;;;0.50;0.32;;;;;;;14.88;82.48;101320.25;5035631;28;20021;-58
2022/08/26 09:51:23;;;;;;;0.30;0.30;;;;;;;14.88;82.61;101318.41;5035667;28;20021;-58
2022/08/26 09:53:51;;;;;;;0.65;0.40;;;;;;;15.02;81.77;101324.47;5035686;28;20025;-58
2022/08/26 09:56:38;;;;;;;0.20;0.20;;;;;;;14.98;81.73;101324.09;5035513;28;20022;-58
2022/08/26 09:59:09;;;;;;;0.20;0.20;;;;;;;14.99;81.73;101319.50;5035466;28;20025;-58
2022/08/26 10:01:42;;;;;;;0.30;0.30;;;;;;;14.93;81.90;101320.41;5035460;28;20079;-57
2022/08/26 10:04:13;;;;;;;0.30;0.30;;;;;;;14.94;82.39;101314.81;5035471;28;20112;-58
2022/08/26 10:06:57;;;;;;;0.35;0.30;;;;;;;14.98;81.98;101317.88;5035345;28;20030;-57
2022/08/26 10:09:25;;;;;;;0.38;0.20;;;;;;;15.13;81.11;101320.22;5035296;28;20028;-57
2022/08/26 10:11:59;;;;;;;0.50;0.30;;;;;;;15.11;81.05;101319.63;5035154;28;20036;-57
2022/08/26 10:17:02;;;;;;;;;;;;;;;14.99;81.06;101324.91;5641239;22;20048;-54
2022/08/26 10:19:37;;;;;;;0.35;0.30;;;;;;;14.99;80.44;101324.91;5031670;28;20046;-54
2022/08/26 10:22:18;;;;;;;0.68;0.30;;;;;;;14.91;80.54;101320.66;5025503;28;20032;-54
2022/08/26 10:24:48;;;;;;;1.65;0.40;;;;;;;14.85;80.75;101321.53;5034428;28;20118;-54
2022/08/26 10:27:21;;;;;;;0.60;0.30;;;;;;;14.93;80.38;101323.94;5033651;28;20037;-54
2022/08/26 10:29:53;;;;;;;1.05;0.32;;;;;;;14.75;80.39;101323.91;5034012;28;20470;-55
2022/08/26 10:33:00;;;;;;;1.05;0.30;;;;;;;14.83;80.01;101325.50;5033460;28;20433;-54
2022/08/26 10:35:27;;;;;;;0.20;0.20;;;;;;;14.75;80.09;101322.03;5025754;28;20037;-57
2022/08/26 10:38:06;;;;;;;0.35;0.20;;;;;;;14.69;80.49;101322.09;5015762;28;20029;-57
2022/08/26 10:40:53;;;;;;;0.20;0.13;;;;;;;14.70;80.56;101321.88;5034267;28;20037;-57
2022/08/26 10:43:29;;;;;;;0.30;0.20;;;;;;;14.76;80.21;101329.06;5033690;28;20038;-57
2022/08/26 10:46:04;;;;;;;0.10;0.10;;;;;;;14.84;80.04;101324.47;5033158;28;20029;-57
2022/08/26 10:48:33;;;;;;;0.17;0.10;;;;;;;14.74;80.28;101322.28;5034121;28;20534;-57
2022/08/26 10:51:01;;;;;;;0.10;0.10;;;;;;;14.69;80.79;101324.81;5033838;28;20038;-57
2022/08/26 10:53:44;;;;;;;0.28;0.17;;;;;;;14.85;80.32;101318.84;5033499;28;20032;-57
2022/08/26 10:57:03;;;;;;;0.10;0.10;;;;;;;14.86;80.59;101320.47;5034075;28;20029;-57
2022/08/26 11:03:13;;;;;;;0.30;0.20;;;;;;;14.86;81.09;101308.88;5013953;28;20119;-57
2022/08/26 11:05:39;;;;;;;0.20;0.20;;;;;;;14.85;81.40;101318.03;5016861;28;20025;-57
2022/08/26 11:08:20;;;;;;;0.30;0.10;;;;;;;14.85;81.38;101318.03;5033090;28;20340;-57
2022/08/26 11:10:58;;;;;;;0.30;0.30;;;;;;;14.98;81.14;101316.00;5035649;28;20025;-57
2022/08/26 11:13:55;;;;;;;0.38;0.10;;;;;;;14.97;80.58;101313.53;5041092;28;20037;-57
2022/08/26 11:16:41;;;;;;;0.10;0.10;;;;;;;15.01;80.17;101314.75;5021830;28;20034;-57
2022/08/26 11:19:09;;;;;;;0.20;0.10;;;;;;;14.96;79.95;101319.97;5013363;28;20041;-57
2022/08/26 11:21:43;;;;;;;0.00;0.00;;;;;;;14.92;79.13;101324.16;5030257;28;20422;-57
2022/08/26 11:25:05;;;;;;;0.20;0.10;;;;;;;14.93;79.73;101315.03;5050225;28;20086;-57
2022/08/26 11:27:37;;;;;;;0.00;0.00;;;;;;;15.00;79.27;101322.00;4970973;28;20027;-57
2022/08/26 11:30:09;;;;;;;0.10;0.10;;;;;;;15.02;79.53;101314.50;5033448;28;20049;-56
2022/08/26 11:32:38;;;;;;;0.70;0.20;;;;;;;15.03;79.42;101315.34;5021334;28;20057;-57
2022/08/26 11:35:11;;;;;;;0.00;0.00;;;;;;;15.10;79.69;101310.69;5033663;28;20068;-57
2022/08/26 11:37:46;;;;;;;0.40;0.10;;;;;;;15.14;79.80;101306.50;5012547;28;20529;-57
2022/08/26 11:40:16;;;;;;;0.38;0.20;;;;;;;15.16;79.37;101307.13;5016505;28;20542;-57
2022/08/26 11:42:54;;;;;;;0.10;0.10;;;;;;;15.07;79.58;101302.25;5012513;28;20109;-57
2022/08/26 11:45:26;;;;;;;0.17;0.10;;;;;;;15.14;79.08;101308.38;5012862;28;20080;-57
2022/08/26 11:47:53;;;;;;;0.45;0.10;;;;;;;14.99;80.29;101314.97;5040838;28;20029;-57
2022/08/26 11:50:22;;;;;;;0.10;0.10;;;;;;;15.07;80.09;101308.47;5050956;28;20425;-57
2022/08/26 11:53:00;;;;;;;0.10;0.10;;;;;;;15.03;79.81;101305.38;5014186;28;20471;-57
2022/08/26 11:55:28;;;;;;;0.45;0.10;;;;;;;15.09;79.66;101311.75;5012510;28;20033;-57